createdAt,value
2023-09-06T00:00:59.443Z,30.3
2023-09-06T00:06:53.888Z,30.3
2023-09-06T00:12:46.025Z,30.2
2023-09-06T00:18:38.677Z,30.3
2023-09-06T00:24:31.254Z,30.2
2023-09-06T00:30:23.355Z,30.2
2023-09-06T00:36:15.890Z,30.2
2023-09-06T00:42:08.858Z,30.2
2023-09-06T00:48:00.945Z,30.2
2023-09-06T00:53:52.679Z,30.1
2023-09-06T00:59:44.367Z,30.2
2023-09-06T01:05:38.092Z,30.1
2023-09-06T01:11:29.207Z,30.1
2023-09-06T01:17:21.653Z,30.1
2023-09-06T01:23:14.063Z,30.1
2023-09-06T01:29:06.525Z,30.1
2023-09-06T01:35:00.434Z,30.1
2023-09-06T01:40:52.034Z,30.1
2023-09-06T01:46:44.264Z,30.1
2023-09-06T01:52:36.710Z,30.1
2023-09-06T01:58:28.755Z,30
2023-09-06T02:03:50.423Z,30
2023-09-06T02:09:42.978Z,30
2023-09-06T02:15:34.487Z,30
2023-09-06T02:21:12.191Z,29.9
2023-09-06T02:27:03.904Z,29.9
2023-09-06T02:32:56.294Z,29.9
2023-09-06T02:38:48.441Z,29.9
2023-09-06T02:44:40.479Z,29.9
2023-09-06T02:50:32.814Z,29.9
2023-09-06T02:56:25.330Z,29.9
2023-09-06T03:02:18.133Z,29.9
2023-09-06T03:08:10.170Z,29.9
2023-09-06T03:14:02.546Z,29.9
2023-09-06T03:19:56.909Z,29.9
2023-09-06T03:25:48.090Z,29.8
2023-09-06T03:31:40.793Z,29.8
2023-09-06T03:37:33.484Z,29.8
2023-09-06T03:43:26.296Z,29.8
2023-09-06T03:49:19.982Z,29.6
2023-09-06T03:54:57.381Z,29.6
2023-09-06T04:00:49.124Z,29.4
2023-09-06T04:06:43.257Z,29.1
2023-09-06T04:12:38.360Z,29.1
2023-09-06T04:18:31.158Z,28.9
2023-09-06T04:24:22.239Z,28.9
2023-09-06T04:30:15.555Z,28.9
2023-09-06T04:36:07.451Z,28.9
2023-09-06T04:41:59.094Z,28.9
2023-09-06T04:47:55.353Z,28.8
2023-09-06T04:53:32.752Z,28.7
2023-09-06T04:59:25.009Z,28.6
2023-09-06T05:05:18.583Z,28.4
2023-09-06T05:11:10.518Z,28.4
2023-09-06T05:17:02.851Z,28.3
2023-09-06T05:22:55.642Z,28.3
2023-09-06T05:28:31.338Z,28.3
2023-09-06T05:34:07.779Z,28.2
2023-09-06T05:39:44.902Z,28.2
2023-09-06T05:45:38.641Z,28.1
2023-09-06T05:51:52.194Z,28.2
2023-09-06T05:57:46.708Z,28.2
2023-09-06T06:03:38.979Z,28.1
2023-09-06T06:09:30.272Z,28.1
2023-09-06T06:15:33.854Z,28.1
2023-09-06T06:21:33.813Z,28.1
2023-09-06T06:27:26.100Z,28.1
2023-09-06T06:33:22.954Z,28.1
2023-09-06T06:39:15.011Z,28.1
2023-09-06T06:45:06.323Z,28.1
2023-09-06T06:51:00.088Z,28.1
2023-09-06T06:56:55.965Z,28.1
2023-09-06T07:02:48.001Z,28.1
2023-09-06T07:08:40.848Z,28.1
2023-09-06T07:14:33.331Z,28.1
2023-09-06T07:20:30.491Z,28.1
2023-09-06T07:26:21.906Z,28.1
2023-09-06T07:32:13.801Z,32.1
2023-09-06T07:38:07.641Z,43.9
2023-09-06T07:44:00.405Z,40.1
2023-09-06T07:49:54.555Z,37.6
2023-09-06T07:55:47.085Z,35.9
2023-09-06T08:01:52.904Z,34.5
2023-09-06T08:07:46.924Z,33.2
2023-09-06T08:13:39.505Z,32.5
2023-09-06T08:19:20.408Z,53.5
2023-09-06T08:25:25.772Z,50.1
2023-09-06T08:31:19.993Z,50.1
2023-09-06T08:37:13.956Z,51.9
2023-09-06T08:43:06.266Z,52.8
2023-09-06T08:48:43.911Z,53.1
2023-09-06T08:54:22.942Z,54.2
2023-09-06T09:06:26.453Z,50.1
2023-09-06T09:12:19.569Z,47.6
2023-09-06T09:18:30.114Z,56.7
2023-09-06T09:24:23.495Z,50.1
2023-09-06T09:30:17.406Z,47.2
2023-09-06T09:36:10.241Z,44.3
2023-09-06T09:42:15.944Z,41.3
2023-09-06T09:48:26.380Z,38.9
2023-09-06T09:54:29.303Z,37.3
2023-09-06T10:00:05.406Z,36
2023-09-06T10:06:09.173Z,35
2023-09-06T10:12:17.915Z,34.3
2023-09-06T10:18:13.292Z,33.9
2023-09-06T10:24:22.210Z,33.4
2023-09-06T10:30:34.604Z,32.8
2023-09-06T10:36:26.747Z,32.3
2023-09-06T10:42:18.591Z,31.8
2023-09-06T10:48:10.892Z,31.4
2023-09-06T10:54:07.641Z,31
2023-09-06T10:59:44.963Z,30.6
2023-09-06T11:05:36.835Z,30.3
2023-09-06T11:11:48.230Z,30
2023-09-06T11:17:40.749Z,29.8
2023-09-06T11:23:33.884Z,29.5
2023-09-06T11:29:11.099Z,29.3
2023-09-06T11:35:04.422Z,29.1
2023-09-06T11:40:55.800Z,28.9
2023-09-06T11:46:47.861Z,28.8
2023-09-06T11:52:51.717Z,28.6
2023-09-06T11:58:49.956Z,28.4
2023-09-06T12:04:43.157Z,28.3
2023-09-06T12:10:52.009Z,28.1
2023-09-06T12:16:44.496Z,28
2023-09-06T12:22:24.844Z,27.9
2023-09-06T12:33:50.519Z,27.8
2023-09-06T12:39:44.045Z,27.6
2023-09-06T12:45:38.814Z,27.6
2023-09-06T12:51:31.441Z,27.5
2023-09-06T12:57:26.997Z,27.4
2023-09-06T13:03:19.848Z,27.3
2023-09-06T13:09:12.690Z,27.3
2023-09-06T13:15:07.938Z,27.2
2023-09-06T13:20:46.642Z,27.2
2023-09-06T13:26:38.759Z,27.1
2023-09-06T13:32:30.957Z,27.1
2023-09-06T13:38:25.034Z,27
2023-09-06T13:44:19.046Z,26.9
2023-09-06T13:50:12.721Z,26.9
2023-09-06T13:56:05.207Z,26.9
2023-09-06T14:01:42.122Z,26.9
2023-09-06T14:07:35.594Z,26.9
2023-09-06T14:13:27.492Z,26.9
2023-09-06T14:19:20.088Z,26.8
2023-09-06T14:24:56.937Z,26.8
2023-09-06T14:30:50.515Z,26.8
2023-09-06T14:36:43.353Z,26.8
2023-09-06T14:42:20.191Z,26.7
2023-09-06T14:48:13.199Z,26.7
2023-09-06T14:54:04.834Z,26.6
2023-09-06T15:00:01.284Z,26.6
2023-09-06T15:05:41.943Z,26.6
2023-09-06T15:11:55.050Z,26.5
2023-09-06T15:17:30.624Z,26.4
2023-09-06T15:23:35.806Z,26.4
2023-09-06T15:29:26.999Z,26.3
2023-09-06T15:35:18.895Z,26.3
2023-09-06T15:41:10.324Z,26.3
2023-09-06T15:47:01.869Z,26.3
2023-09-06T15:52:54.203Z,26.2
2023-09-06T15:58:46.616Z,26.1
2023-09-06T16:04:57.880Z,26.1
2023-09-06T16:10:50.960Z,26.1
2023-09-06T16:16:46.186Z,26.1
2023-09-06T16:22:40.723Z,26
2023-09-06T16:28:32.201Z,25.9
2023-09-06T16:34:26.314Z,25.9
2023-09-06T16:40:19.668Z,25.9
2023-09-06T16:46:11.130Z,25.9
2023-09-06T16:52:05.613Z,25.9
2023-09-06T16:57:57.762Z,25.9
2023-09-06T17:03:51.022Z,25.9
2023-09-06T17:09:42.947Z,25.9
2023-09-06T17:15:34.168Z,25.9
2023-09-06T17:21:28.076Z,25.9
2023-09-06T17:27:30.661Z,25.9
2023-09-06T17:33:22.094Z,25.9
2023-09-06T17:38:57.740Z,25.9
2023-09-06T17:44:49.434Z,25.9
2023-09-06T17:50:42.566Z,25.9
2023-09-06T17:56:34.693Z,25.9
2023-09-06T18:02:30.608Z,25.9
2023-09-06T18:08:26.003Z,25.8
2023-09-06T18:14:17.631Z,25.8
2023-09-06T18:20:10.216Z,25.8
2023-09-06T18:26:04.732Z,25.8
2023-09-06T18:31:55.709Z,25.8
2023-09-06T18:37:32.137Z,25.8
2023-09-06T18:43:23.496Z,25.8
2023-09-06T18:49:01.700Z,25.8
2023-09-06T18:54:53.595Z,25.8
2023-09-06T19:00:57.401Z,25.8
2023-09-06T19:06:51.869Z,25.8
2023-09-06T19:12:44.405Z,25.8
2023-09-06T19:18:38.280Z,25.8
2023-09-06T19:24:29.199Z,25.8
2023-09-06T19:30:22.561Z,25.8
2023-09-06T19:36:19.077Z,25.8
2023-09-06T19:42:10.700Z,25.8
2023-09-06T19:47:48.217Z,25.8
2023-09-06T19:53:57.271Z,25.8
2023-09-06T19:59:48.186Z,25.8
2023-09-06T20:05:43.708Z,25.8
2023-09-06T20:11:20.289Z,25.8
2023-09-06T20:16:58.369Z,25.7
2023-09-06T20:22:50.402Z,25.7
2023-09-06T20:28:41.925Z,25.7
2023-09-06T20:34:33.835Z,25.7
2023-09-06T20:40:26.424Z,25.8
2023-09-06T20:46:18.209Z,25.7
2023-09-06T20:52:10.627Z,25.8
2023-09-06T20:58:02.330Z,25.8
2023-09-06T21:03:57.397Z,25.7
2023-09-06T21:09:33.523Z,25.7
2023-09-06T21:15:09.867Z,25.7
2023-09-06T21:20:48.692Z,25.6
2023-09-06T21:26:39.693Z,25.6
2023-09-06T21:32:42.381Z,25.6
2023-09-06T21:38:34.292Z,25.6
2023-09-06T21:44:39.779Z,25.6
2023-09-06T21:50:33.392Z,25.6
2023-09-06T21:56:24.826Z,25.5
2023-09-06T22:02:32.185Z,25.5
2023-09-06T22:08:25.715Z,25.6
2023-09-06T22:14:17.253Z,25.5
2023-09-06T22:20:08.980Z,25.5
2023-09-06T22:26:01.170Z,25.4
2023-09-06T22:31:53.890Z,25.4
2023-09-06T22:37:45.468Z,25.5
2023-09-06T22:43:22.820Z,25.4
2023-09-06T22:49:29.763Z,25.4
2023-09-06T22:55:22.062Z,25.4
2023-09-06T23:01:15.084Z,25.4
2023-09-06T23:07:10.526Z,25.4
2023-09-06T23:12:47.151Z,25.4
2023-09-06T23:18:24.798Z,25.4
2023-09-06T23:24:17.090Z,25.4
2023-09-06T23:29:53.915Z,25.4
2023-09-06T23:35:47.350Z,25.4
2023-09-06T23:41:40.348Z,25.4
2023-09-06T23:47:16.697Z,25.3
2023-09-06T23:52:54.178Z,25.4
2023-09-06T23:58:43.049Z,25.3
